createdAt,value
2017-07-27T00:00:43.288Z,1020.83
2017-07-27T00:01:43.279Z,1020.86
2017-07-27T00:02:43.274Z,1020.91
2017-07-27T00:03:43.274Z,1020.91
2017-07-27T00:04:43.270Z,1020.92
2017-07-27T00:05:43.267Z,1020.95
2017-07-27T00:06:43.265Z,1020.97
2017-07-27T00:07:43.261Z,1020.97
2017-07-27T00:08:43.252Z,1020.98
2017-07-27T00:09:43.244Z,1020.92
2017-07-27T00:10:43.248Z,1020.93
2017-07-27T00:11:43.238Z,1020.94
2017-07-27T00:12:43.237Z,1020.96
2017-07-27T00:13:43.233Z,1020.95
2017-07-27T00:14:43.226Z,1020.95
2017-07-27T00:15:43.226Z,1020.96
2017-07-27T00:16:43.216Z,1020.97
2017-07-27T00:17:43.217Z,1020.98
2017-07-27T00:18:43.212Z,1020.97
2017-07-27T00:19:43.206Z,1021.03
2017-07-27T00:20:43.199Z,1020.99
2017-07-27T00:21:43.195Z,1020.99
2017-07-27T00:22:43.190Z,1020.98
2017-07-27T00:23:43.192Z,1020.99
2017-07-27T00:24:43.187Z,1020.97
2017-07-27T00:25:43.179Z,1020.99
2017-07-27T00:26:43.174Z,1021.02
2017-07-27T00:27:43.173Z,1021.02
2017-07-27T00:28:43.166Z,1021.07
2017-07-27T00:29:43.160Z,1021.09
2017-07-27T00:30:43.157Z,1021.09
2017-07-27T00:31:43.151Z,1021.09
2017-07-27T00:32:43.150Z,1021.08
2017-07-27T00:33:43.146Z,1021.09
2017-07-27T00:34:43.144Z,1021.07
2017-07-27T00:35:43.138Z,1021.1
2017-07-27T00:36:43.132Z,1021.11
2017-07-27T00:37:43.124Z,1021.12
2017-07-27T00:38:43.120Z,1021.13
2017-07-27T00:39:43.119Z,1021.11
2017-07-27T00:40:43.118Z,1021.11
2017-07-27T00:41:43.109Z,1021.1
2017-07-27T00:42:43.104Z,1021.1
2017-07-27T00:43:43.102Z,1021.08
2017-07-27T00:44:43.097Z,1021.05
2017-07-27T00:45:43.090Z,1021.08
2017-07-27T00:46:43.088Z,1021.07
2017-07-27T00:47:43.081Z,1021.06
2017-07-27T00:48:43.080Z,1021.03
2017-07-27T00:49:43.074Z,1021.04
2017-07-27T00:50:43.069Z,1020.97
2017-07-27T00:51:43.069Z,1020.98
2017-07-27T00:52:43.061Z,1020.97
2017-07-27T00:53:43.061Z,1020.93
2017-07-27T00:54:43.052Z,1020.94
2017-07-27T00:55:43.050Z,1020.95
2017-07-27T00:56:43.045Z,1020.97
2017-07-27T00:57:43.042Z,1020.92
2017-07-27T00:58:43.034Z,1020.91
2017-07-27T00:59:43.029Z,1020.98
2017-07-27T01:00:43.029Z,1020.97
2017-07-27T01:01:43.021Z,1021
2017-07-27T01:02:43.023Z,1020.96
2017-07-27T01:03:43.015Z,1020.97
2017-07-27T01:04:43.011Z,1020.95
2017-07-27T01:05:43.006Z,1020.99
2017-07-27T01:06:43.002Z,1020.99
2017-07-27T01:07:42.998Z,1020.93
2017-07-27T01:08:42.995Z,1020.98
2017-07-27T01:09:42.989Z,1020.96
2017-07-27T01:10:42.982Z,1020.95
2017-07-27T01:11:42.982Z,1020.89
2017-07-27T01:12:42.977Z,1020.93
2017-07-27T01:13:42.968Z,1020.89
2017-07-27T01:14:42.963Z,1020.88
2017-07-27T01:15:42.962Z,1020.93
2017-07-27T01:16:42.957Z,1020.9
2017-07-27T01:17:42.951Z,1020.9
2017-07-27T01:18:42.953Z,1020.87
2017-07-27T01:19:42.942Z,1020.87
2017-07-27T01:20:42.942Z,1020.86
2017-07-27T01:21:42.937Z,1020.9
2017-07-27T01:22:42.933Z,1020.89
2017-07-27T01:23:42.926Z,1020.86
2017-07-27T01:24:42.926Z,1020.93
2017-07-27T01:25:42.924Z,1020.88
2017-07-27T01:26:42.917Z,1020.92
2017-07-27T01:27:42.908Z,1020.87
2017-07-27T01:28:42.909Z,1020.88
2017-07-27T01:29:42.901Z,1020.85
2017-07-27T01:30:42.898Z,1020.88
2017-07-27T01:31:42.899Z,1020.91
2017-07-27T01:32:42.889Z,1020.87
2017-07-27T01:33:42.885Z,1020.88
2017-07-27T01:34:42.884Z,1020.9
2017-07-27T01:35:42.875Z,1020.88
2017-07-27T01:36:42.874Z,1020.88
2017-07-27T01:37:42.867Z,1020.89
2017-07-27T01:38:42.865Z,1020.89
2017-07-27T01:39:42.860Z,1020.87
2017-07-27T01:40:42.855Z,1020.86
2017-07-27T01:41:42.851Z,1020.84
2017-07-27T01:42:42.847Z,1020.86
2017-07-27T01:43:42.843Z,1020.85
2017-07-27T01:44:42.838Z,1020.85
2017-07-27T01:45:42.836Z,1020.86
2017-07-27T01:46:42.826Z,1020.89
2017-07-27T01:47:42.824Z,1020.86
2017-07-27T01:48:42.818Z,1020.84
2017-07-27T01:49:42.818Z,1020.84
2017-07-27T01:50:42.809Z,1020.84
2017-07-27T01:51:42.808Z,1020.8
2017-07-27T01:52:42.799Z,1020.82
2017-07-27T01:53:42.798Z,1020.82
2017-07-27T01:54:42.796Z,1020.81
2017-07-27T01:55:42.790Z,1020.8
2017-07-27T01:56:42.790Z,1020.77
2017-07-27T01:57:42.782Z,1020.74
2017-07-27T01:58:42.777Z,1020.69
2017-07-27T01:59:42.776Z,1020.71
2017-07-27T02:00:42.769Z,1020.69
2017-07-27T02:01:42.765Z,1020.7
2017-07-27T02:02:43.062Z,1020.69
2017-07-27T02:03:42.755Z,1020.67
2017-07-27T02:04:42.753Z,1020.68
2017-07-27T02:05:42.748Z,1020.69
2017-07-27T02:06:42.739Z,1020.69
2017-07-27T02:07:42.739Z,1020.66
2017-07-27T02:08:42.735Z,1020.69
2017-07-27T02:09:42.730Z,1020.67
2017-07-27T02:10:42.724Z,1020.65
2017-07-27T02:11:42.722Z,1020.68
2017-07-27T02:12:42.718Z,1020.69
2017-07-27T02:13:42.711Z,1020.7
2017-07-27T02:14:42.709Z,1020.69
2017-07-27T02:15:42.703Z,1020.7
2017-07-27T02:16:42.703Z,1020.67
2017-07-27T02:17:42.697Z,1020.69
2017-07-27T02:18:42.690Z,1020.63
2017-07-27T02:19:42.688Z,1020.67
2017-07-27T02:20:42.697Z,1020.69
2017-07-27T02:21:42.678Z,1020.67
2017-07-27T02:22:42.671Z,1020.65
2017-07-27T02:23:42.668Z,1020.63
2017-07-27T02:24:42.664Z,1020.62
2017-07-27T02:25:42.664Z,1020.59
2017-07-27T02:26:42.656Z,1020.62
2017-07-27T02:27:42.656Z,1020.63
2017-07-27T02:28:42.650Z,1020.66
2017-07-27T02:29:42.647Z,1020.63
2017-07-27T02:30:42.642Z,1020.63
2017-07-27T02:31:42.636Z,1020.6
2017-07-27T02:32:42.635Z,1020.63
2017-07-27T02:33:42.626Z,1020.64
2017-07-27T02:34:42.619Z,1020.63
2017-07-27T02:35:42.620Z,1020.63
2017-07-27T02:36:42.614Z,1020.63
2017-07-27T02:37:42.611Z,1020.65
2017-07-27T02:38:42.606Z,1020.65
2017-07-27T02:39:42.601Z,1020.65
2017-07-27T02:40:42.597Z,1020.66
2017-07-27T02:41:42.594Z,1020.66
2017-07-27T02:42:42.590Z,1020.63
2017-07-27T02:43:42.586Z,1020.68
2017-07-27T02:44:42.582Z,1020.63
2017-07-27T02:45:42.576Z,1020.66
2017-07-27T02:46:42.571Z,1020.64
2017-07-27T02:47:42.566Z,1020.64
2017-07-27T02:48:42.566Z,1020.62
2017-07-27T02:49:42.558Z,1020.6
2017-07-27T02:50:42.552Z,1020.62
2017-07-27T02:51:42.548Z,1020.62
2017-07-27T02:52:42.546Z,1020.61
2017-07-27T02:53:42.536Z,1020.58
2017-07-27T02:54:42.688Z,1020.55
2017-07-27T02:55:42.528Z,1020.61
2017-07-27T02:56:42.530Z,1020.59
2017-07-27T02:57:42.522Z,1020.62
2017-07-27T02:58:42.518Z,1020.61
2017-07-27T02:59:42.514Z,1020.64
2017-07-27T03:00:42.512Z,1020.61
2017-07-27T03:01:42.507Z,1020.6
2017-07-27T03:02:42.506Z,1020.62
2017-07-27T03:03:42.499Z,1020.62
2017-07-27T03:04:42.494Z,1020.62
2017-07-27T03:05:42.489Z,1020.65
2017-07-27T03:06:42.487Z,1020.64
2017-07-27T03:07:42.482Z,1020.65
2017-07-27T03:08:42.476Z,1020.7
2017-07-27T03:09:42.475Z,1020.71
2017-07-27T03:10:42.470Z,1020.72
2017-07-27T03:11:42.465Z,1020.73
2017-07-27T03:12:42.459Z,1020.7
2017-07-27T03:13:42.452Z,1020.72
2017-07-27T03:14:42.451Z,1020.71
2017-07-27T03:15:42.446Z,1020.74
2017-07-27T03:16:42.445Z,1020.73
2017-07-27T03:17:42.439Z,1020.76
2017-07-27T03:18:42.434Z,1020.73
2017-07-27T03:19:42.431Z,1020.78
2017-07-27T03:20:42.427Z,1020.72
2017-07-27T03:21:42.421Z,1020.75
2017-07-27T03:22:42.417Z,1020.77
2017-07-27T03:23:42.413Z,1020.77
2017-07-27T03:24:42.408Z,1020.74
2017-07-27T03:25:42.405Z,1020.76
2017-07-27T03:26:42.398Z,1020.76
2017-07-27T03:27:42.399Z,1020.78
2017-07-27T03:28:42.394Z,1020.77
2017-07-27T03:29:42.389Z,1020.79
2017-07-27T03:30:42.381Z,1020.78
2017-07-27T03:31:42.381Z,1020.81
2017-07-27T03:32:42.372Z,1020.79
2017-07-27T03:33:42.367Z,1020.81
2017-07-27T03:34:42.366Z,1020.83
2017-07-27T03:35:42.362Z,1020.85
2017-07-27T03:36:42.356Z,1020.85
2017-07-27T03:37:42.356Z,1020.84
2017-07-27T03:38:42.353Z,1020.83
2017-07-27T03:39:42.346Z,1020.82
2017-07-27T03:40:42.345Z,1020.8
2017-07-27T03:41:42.339Z,1020.79
2017-07-27T03:42:42.331Z,1020.8
2017-07-27T03:43:42.330Z,1020.8
2017-07-27T03:44:42.323Z,1020.81
2017-07-27T03:45:42.321Z,1020.81
2017-07-27T03:46:42.318Z,1020.8
2017-07-27T03:47:42.313Z,1020.83
2017-07-27T03:48:42.307Z,1020.82
2017-07-27T03:49:42.309Z,1020.86
2017-07-27T03:50:42.298Z,1020.84
2017-07-27T03:51:42.298Z,1020.82
2017-07-27T03:52:42.290Z,1020.81
2017-07-27T03:53:42.288Z,1020.8
2017-07-27T03:54:42.282Z,1020.84
2017-07-27T03:55:42.274Z,1020.8
2017-07-27T03:56:42.275Z,1020.82
2017-07-27T03:57:42.268Z,1020.84
2017-07-27T03:58:42.266Z,1020.81
2017-07-27T03:59:42.261Z,1020.8
2017-07-27T04:00:42.259Z,1020.76
2017-07-27T04:01:42.250Z,1020.8
2017-07-27T04:02:42.248Z,1020.79
2017-07-27T04:03:42.243Z,1020.79
2017-07-27T04:04:42.241Z,1020.81
2017-07-27T04:05:42.233Z,1020.86
2017-07-27T04:06:42.231Z,1020.79
2017-07-27T04:07:42.227Z,1020.78
2017-07-27T04:08:42.223Z,1020.78
2017-07-27T04:09:42.215Z,1020.8
2017-07-27T04:10:42.211Z,1020.82
2017-07-27T04:11:42.207Z,1020.79
2017-07-27T04:12:42.207Z,1020.77
2017-07-27T04:13:42.203Z,1020.78
2017-07-27T04:14:42.199Z,1020.78
2017-07-27T04:15:42.194Z,1020.78
2017-07-27T04:16:42.187Z,1020.82
2017-07-27T04:17:42.186Z,1020.82
2017-07-27T04:18:42.183Z,1020.84
2017-07-27T04:19:42.181Z,1020.79
2017-07-27T04:20:42.173Z,1020.81
2017-07-27T04:21:42.170Z,1020.81
2017-07-27T04:22:42.161Z,1020.82
2017-07-27T04:23:42.160Z,1020.83
2017-07-27T04:24:42.161Z,1020.87
2017-07-27T04:25:42.153Z,1020.87
2017-07-27T04:26:42.146Z,1020.86
2017-07-27T04:27:42.145Z,1020.84
2017-07-27T04:28:42.136Z,1020.89
2017-07-27T04:29:42.134Z,1020.86
2017-07-27T04:30:42.128Z,1020.85
2017-07-27T04:31:42.125Z,1020.8
2017-07-27T04:32:42.124Z,1020.85
2017-07-27T04:33:42.120Z,1020.84
2017-07-27T04:34:42.117Z,1020.84
2017-07-27T04:35:42.112Z,1020.86
2017-07-27T04:36:42.107Z,1020.86
2017-07-27T04:37:42.103Z,1020.89
2017-07-27T04:38:42.095Z,1020.88
2017-07-27T04:39:42.096Z,1020.92
2017-07-27T04:40:42.092Z,1020.9
2017-07-27T04:41:42.087Z,1020.93
2017-07-27T04:42:42.079Z,1020.94
2017-07-27T04:43:42.075Z,1020.97
2017-07-27T04:44:42.075Z,1020.96
2017-07-27T04:45:42.071Z,1020.99
2017-07-27T04:46:42.068Z,1020.97
2017-07-27T04:47:42.059Z,1020.95
2017-07-27T04:48:42.059Z,1020.91
2017-07-27T04:49:42.050Z,1020.93
2017-07-27T04:50:42.051Z,1020.95
2017-07-27T04:51:42.045Z,1020.97
2017-07-27T04:52:42.041Z,1021.01
2017-07-27T04:53:42.037Z,1021.01
2017-07-27T04:54:42.033Z,1021.05
2017-07-27T04:55:42.031Z,1021.06
2017-07-27T04:56:42.024Z,1021.06
2017-07-27T04:57:42.021Z,1021.04
2017-07-27T04:58:42.013Z,1021.05
2017-07-27T04:59:42.012Z,1021.09
2017-07-27T05:00:42.009Z,1021.1
2017-07-27T05:01:42.010Z,1021.11
2017-07-27T05:02:42.002Z,1021.15
2017-07-27T05:03:41.992Z,1021.13
2017-07-27T05:04:41.992Z,1021.15
2017-07-27T05:05:41.986Z,1021.15
2017-07-27T05:06:41.985Z,1021.18
2017-07-27T05:07:41.977Z,1021.2
2017-07-27T05:08:41.975Z,1021.19
2017-07-27T05:09:41.970Z,1021.14
2017-07-27T05:10:41.966Z,1021.15
2017-07-27T05:11:41.958Z,1021.15
2017-07-27T05:12:41.956Z,1021.13
2017-07-27T05:13:41.954Z,1021.09
2017-07-27T05:14:41.952Z,1021.1
2017-07-27T05:15:41.945Z,1021.06
2017-07-27T05:16:41.937Z,1020.98
2017-07-27T05:17:41.938Z,1020.85
2017-07-27T05:18:41.933Z,1020.53
2017-07-27T05:19:41.929Z,1020.27
2017-07-27T05:20:41.926Z,1019.88
2017-07-27T05:21:41.922Z,1019.79
2017-07-27T05:22:41.917Z,1019.71
2017-07-27T05:23:41.909Z,1019.1
2017-07-27T05:24:41.908Z,1018.95
2017-07-27T05:25:41.904Z,1019
2017-07-27T05:26:41.901Z,1019.06
2017-07-27T05:27:41.895Z,1019.09
2017-07-27T05:28:41.898Z,1019.15
2017-07-27T05:29:41.893Z,1019.26
2017-07-27T05:30:41.893Z,1019.29
2017-07-27T05:31:41.886Z,1019.4
2017-07-27T05:32:41.881Z,1019.43
2017-07-27T05:33:41.881Z,1019.44
2017-07-27T05:34:41.875Z,1019.44
2017-07-27T05:35:41.877Z,1019.41
2017-07-27T05:36:41.873Z,1019.39
2017-07-27T05:37:41.871Z,1019.38
2017-07-27T05:38:41.867Z,1019.38
2017-07-27T05:39:41.867Z,1019.38
2017-07-27T05:40:41.863Z,1019.35
2017-07-27T05:41:41.861Z,1019.31
2017-07-27T05:42:41.859Z,1019.29
2017-07-27T05:43:41.859Z,1019.28
2017-07-27T05:44:41.850Z,1019.24
2017-07-27T05:45:41.851Z,1019.2
2017-07-27T05:46:41.846Z,1018.91
2017-07-27T05:47:41.873Z,1018.87
2017-07-27T05:48:41.842Z,1018.11
2017-07-27T05:49:41.842Z,1017.34
2017-07-27T05:50:41.840Z,1016.51
2017-07-27T05:51:41.842Z,1016.45
2017-07-27T05:52:41.835Z,1016.62
2017-07-27T05:53:41.837Z,1016.61
2017-07-27T05:54:41.837Z,1016.12
2017-07-27T05:55:41.837Z,1015.57
2017-07-27T05:56:41.834Z,1015.27
2017-07-27T05:57:41.839Z,1015.45
2017-07-27T05:58:41.841Z,1015.1
2017-07-27T05:59:41.840Z,1014.73
2017-07-27T06:00:41.844Z,1014.54
2017-07-27T06:01:41.899Z,1014.42
2017-07-27T06:02:41.852Z,1014.31
2017-07-27T06:03:41.856Z,1014.19
2017-07-27T06:04:41.858Z,1014.14
2017-07-27T06:05:41.863Z,1014.06
2017-07-27T06:06:41.863Z,1013.94
2017-07-27T06:07:41.876Z,1013.75
2017-07-27T06:08:41.881Z,1013.55
2017-07-27T06:09:41.887Z,1013.41
2017-07-27T06:10:41.896Z,1013.15
2017-07-27T06:11:41.900Z,1012.9
2017-07-27T06:12:41.909Z,1013.81
2017-07-27T06:13:41.918Z,1013.91
2017-07-27T06:14:41.924Z,1013.85
2017-07-27T06:15:41.931Z,1013.72
2017-07-27T06:16:41.943Z,1013.64
2017-07-27T06:17:41.954Z,1013.57
2017-07-27T06:18:41.962Z,1013.38
2017-07-27T06:19:41.972Z,1013.37
2017-07-27T06:20:41.980Z,1013.33
2017-07-27T06:21:41.988Z,1013.21
2017-07-27T06:22:42.000Z,1013.01
2017-07-27T06:23:42.011Z,1012.79
2017-07-27T06:24:42.019Z,1012.72
2017-07-27T06:25:42.032Z,1012.63
2017-07-27T06:26:42.038Z,1012.57
2017-07-27T06:27:42.052Z,1012.48
2017-07-27T06:28:42.062Z,1012.4
2017-07-27T06:29:42.075Z,1012.33
2017-07-27T06:30:42.090Z,1012.25
2017-07-27T06:31:42.102Z,1012.18
2017-07-27T06:32:42.117Z,1012.19
2017-07-27T06:33:42.127Z,1012.12
2017-07-27T06:34:42.138Z,1012.09
2017-07-27T06:35:42.153Z,1012.12
2017-07-27T06:36:42.169Z,1012.1
2017-07-27T06:37:42.183Z,1011.94
2017-07-27T06:38:42.197Z,1012.11
2017-07-27T06:39:42.208Z,1012.03
2017-07-27T06:40:42.220Z,1011.91
2017-07-27T06:41:42.240Z,1011.81
2017-07-27T06:42:42.248Z,1011.73
2017-07-27T06:43:42.266Z,1011.74
2017-07-27T06:44:42.285Z,1011.78
2017-07-27T06:45:42.294Z,1011.75
2017-07-27T06:46:42.311Z,1011.54
2017-07-27T06:47:42.330Z,1011.8
2017-07-27T06:48:42.347Z,1011.66
2017-07-27T06:49:42.362Z,1011.62
2017-07-27T06:50:42.379Z,1011.57
2017-07-27T06:51:42.394Z,1011.4
2017-07-27T06:52:42.409Z,1011.39
2017-07-27T06:53:42.423Z,1011.38
2017-07-27T06:54:42.441Z,1011.27
2017-07-27T06:55:42.459Z,1011.26
2017-07-27T06:56:42.473Z,1011.31
2017-07-27T06:57:42.490Z,1011.03
2017-07-27T06:58:42.509Z,1011.31
2017-07-27T06:59:42.527Z,1011.23
2017-07-27T07:00:42.545Z,1011.48
2017-07-27T07:01:42.560Z,1011.28
2017-07-27T07:02:42.576Z,1011.72
2017-07-27T07:03:42.592Z,1012.26
2017-07-27T07:04:42.610Z,1012.54
2017-07-27T07:05:42.623Z,1012.22
2017-07-27T07:06:42.644Z,1011.8
2017-07-27T07:07:42.659Z,1011.51
2017-07-27T07:08:42.677Z,1011.25
2017-07-27T07:09:42.699Z,1011.07
2017-07-27T07:10:42.715Z,1010.93
2017-07-27T07:11:42.729Z,1010.89
2017-07-27T07:12:42.745Z,1010.67
2017-07-27T07:13:42.761Z,1010.88
2017-07-27T07:14:42.780Z,1010.92
2017-07-27T07:15:42.801Z,1010.93
2017-07-27T07:16:42.817Z,1011.06
2017-07-27T07:17:42.836Z,1011.46
2017-07-27T07:18:42.852Z,1011.64
2017-07-27T07:19:42.869Z,1011.69
2017-07-27T07:20:42.884Z,1011.44
2017-07-27T07:21:42.906Z,1011.21
2017-07-27T07:22:42.919Z,1011.34
2017-07-27T07:23:42.942Z,1011.63
2017-07-27T07:24:42.962Z,1011.75
2017-07-27T07:25:42.976Z,1012.13
2017-07-27T07:26:42.992Z,1012.5
2017-07-27T07:27:43.016Z,1012.91
2017-07-27T07:28:43.025Z,1013.24
2017-07-27T07:29:43.042Z,1013.49
2017-07-27T07:30:43.062Z,1013.3
2017-07-27T07:31:43.079Z,1013.32
2017-07-27T07:32:43.093Z,1013.45
2017-07-27T07:33:43.113Z,1013.46
2017-07-27T07:34:43.128Z,1013.09
2017-07-27T07:35:43.144Z,1013.07
2017-07-27T07:36:43.155Z,1012.6
2017-07-27T07:37:43.176Z,1012.58
2017-07-27T07:38:43.191Z,1012.25
2017-07-27T07:39:43.208Z,1011.99
2017-07-27T07:40:43.219Z,1011.86
2017-07-27T07:41:43.234Z,1011.67
2017-07-27T07:42:43.256Z,1011.6
2017-07-27T07:43:43.273Z,1011.58
2017-07-27T07:44:43.287Z,1011.52
2017-07-27T07:45:43.301Z,1011.45
2017-07-27T07:46:43.322Z,1011.36
2017-07-27T07:47:43.338Z,1011.32
2017-07-27T07:48:43.354Z,1011.31
2017-07-27T07:49:43.370Z,1011.33
2017-07-27T07:50:43.385Z,1011.29
2017-07-27T07:51:43.407Z,1011.25
2017-07-27T07:52:43.420Z,1011.24
2017-07-27T07:53:43.440Z,1011.22
2017-07-27T07:54:43.460Z,1011.13
2017-07-27T07:55:43.476Z,1011.32
2017-07-27T07:56:43.498Z,1011.4
2017-07-27T07:57:43.509Z,1011.51
2017-07-27T07:58:43.533Z,1011.58
2017-07-27T07:59:43.548Z,1011.69
2017-07-27T08:00:43.569Z,1011.72
2017-07-27T08:01:43.587Z,1011.77
2017-07-27T08:02:43.604Z,1011.78
2017-07-27T08:03:43.622Z,1011.72
2017-07-27T08:04:43.639Z,1011.73
2017-07-27T08:05:43.662Z,1011.63
2017-07-27T08:06:43.677Z,1011.54
2017-07-27T08:07:43.699Z,1011.4
2017-07-27T08:08:43.715Z,1011.26
2017-07-27T08:09:43.736Z,1011.26
2017-07-27T08:10:43.749Z,1011.18
2017-07-27T08:11:43.772Z,1011
2017-07-27T08:12:43.795Z,1010.82
2017-07-27T08:13:43.815Z,1010.65
2017-07-27T08:14:43.828Z,1010.71
2017-07-27T08:15:43.849Z,1010.47
2017-07-27T08:16:43.868Z,1010.33
2017-07-27T08:17:43.888Z,1010.16
2017-07-27T08:18:43.909Z,1010.02
2017-07-27T08:19:43.931Z,1009.88
2017-07-27T08:20:43.950Z,1010.05
2017-07-27T08:21:43.978Z,1010.02
2017-07-27T08:22:43.986Z,1010.05
2017-07-27T08:23:44.008Z,1010.21
2017-07-27T08:24:44.031Z,1010.58
2017-07-27T08:25:44.050Z,1010.89
2017-07-27T08:26:44.070Z,1011.15
2017-07-27T08:27:44.087Z,1011.38
2017-07-27T08:28:44.107Z,1011.64
2017-07-27T08:29:44.127Z,1011.85
2017-07-27T08:30:44.147Z,1011.94
2017-07-27T08:31:44.164Z,1012.01
2017-07-27T08:32:44.184Z,1012.05
2017-07-27T08:33:44.205Z,1012.03
2017-07-27T08:34:44.222Z,1012.03
2017-07-27T08:35:44.237Z,1012.01
2017-07-27T08:36:44.260Z,1012.05
2017-07-27T08:37:44.275Z,1012.15
2017-07-27T08:38:44.296Z,1012.19
2017-07-27T08:39:44.313Z,1012.2
2017-07-27T08:40:44.329Z,1012.11
2017-07-27T08:41:44.347Z,1012.08
2017-07-27T08:42:44.367Z,1012.04
2017-07-27T08:43:44.380Z,1012.15
2017-07-27T08:44:44.399Z,1012.16
2017-07-27T08:45:44.421Z,1012.15
2017-07-27T08:46:44.433Z,1012.1
2017-07-27T08:47:44.450Z,1012.04
2017-07-27T08:48:44.469Z,1011.97
2017-07-27T08:49:44.490Z,1011.94
2017-07-27T08:50:44.506Z,1011.96
2017-07-27T08:51:44.520Z,1012.24
2017-07-27T08:52:44.537Z,1012.84
2017-07-27T08:53:44.550Z,1013.63
2017-07-27T08:54:44.571Z,1014.39
2017-07-27T08:55:44.586Z,1014.97
2017-07-27T08:56:44.604Z,1015.56
2017-07-27T08:57:44.622Z,1015.97
2017-07-27T08:58:44.631Z,1016.41
2017-07-27T08:59:44.644Z,1016.7
2017-07-27T09:00:44.657Z,1017.05
2017-07-27T09:01:44.671Z,1017.35
2017-07-27T09:02:44.685Z,1017.65
2017-07-27T09:03:44.701Z,1017.79
2017-07-27T09:04:44.707Z,1017.93
2017-07-27T09:05:44.721Z,1018.13
2017-07-27T09:06:44.733Z,1018.22
2017-07-27T09:07:44.744Z,1018.29
2017-07-27T09:08:44.750Z,1018.35
2017-07-27T09:09:44.765Z,1018.45
2017-07-27T09:10:44.776Z,1018.46
2017-07-27T09:11:44.780Z,1018.53
2017-07-27T09:12:44.795Z,1018.6
2017-07-27T09:13:44.804Z,1018.65
2017-07-27T09:14:44.812Z,1018.71
2017-07-27T09:15:44.822Z,1018.77
2017-07-27T09:16:44.828Z,1018.75
2017-07-27T09:17:44.839Z,1018.74
2017-07-27T09:18:45.068Z,1018.75
2017-07-27T09:19:44.857Z,1018.76
2017-07-27T09:20:44.862Z,1018.84
2017-07-27T09:21:44.871Z,1018.9
2017-07-27T09:22:44.877Z,1018.98
2017-07-27T09:23:44.883Z,1019.04
2017-07-27T09:24:44.888Z,1019.14
2017-07-27T09:25:44.900Z,1019.21
2017-07-27T09:26:44.908Z,1019.27
2017-07-27T09:27:44.914Z,1019.31
2017-07-27T09:28:44.921Z,1019.38
2017-07-27T09:29:44.923Z,1019.4
2017-07-27T09:30:44.932Z,1019.34
2017-07-27T09:31:44.938Z,1019.25
2017-07-27T09:32:44.945Z,1019.19
2017-07-27T09:33:44.951Z,1019.1
2017-07-27T09:34:44.962Z,1019.07
2017-07-27T09:35:44.966Z,1019.03
2017-07-27T09:36:44.973Z,1018.91
2017-07-27T09:37:44.977Z,1018.92
2017-07-27T09:38:44.984Z,1018.93
2017-07-27T09:39:44.990Z,1018.88
2017-07-27T09:40:44.993Z,1018.9
2017-07-27T09:41:45.005Z,1018.94
2017-07-27T09:42:45.010Z,1018.98
2017-07-27T09:43:45.018Z,1018.95
2017-07-27T09:44:45.021Z,1018.93
2017-07-27T09:45:45.023Z,1018.9
2017-07-27T09:46:45.033Z,1018.91
2017-07-27T09:47:45.041Z,1018.91
2017-07-27T09:48:45.045Z,1018.78
2017-07-27T09:49:45.052Z,1018.77
2017-07-27T09:50:45.058Z,1018.74
2017-07-27T09:51:45.062Z,1018.66
2017-07-27T09:52:45.069Z,1018.64
2017-07-27T09:53:45.075Z,1018.68
2017-07-27T09:54:45.080Z,1018.68
2017-07-27T09:55:45.084Z,1018.61
2017-07-27T09:56:45.093Z,1018.6
2017-07-27T09:57:45.097Z,1018.58
2017-07-27T09:58:45.100Z,1018.52
2017-07-27T09:59:45.107Z,1018.44
2017-07-27T10:00:45.115Z,1018.31
2017-07-27T10:01:45.123Z,1018.18
2017-07-27T10:02:45.130Z,1018.11
2017-07-27T10:03:45.134Z,1018.02
2017-07-27T10:04:45.139Z,1017.96
2017-07-27T10:05:45.143Z,1017.84
2017-07-27T10:06:45.150Z,1017.8
2017-07-27T10:07:45.158Z,1017.74
2017-07-27T10:08:45.167Z,1017.68
2017-07-27T10:09:45.174Z,1017.55
2017-07-27T10:10:45.180Z,1017.46
2017-07-27T10:11:45.186Z,1017.4
2017-07-27T10:12:45.194Z,1017.35
2017-07-27T10:13:45.197Z,1017.29
2017-07-27T10:14:45.203Z,1017.26
2017-07-27T10:15:45.211Z,1017.2
2017-07-27T10:16:45.221Z,1017.11
2017-07-27T10:17:45.230Z,1017.07
2017-07-27T10:18:45.231Z,1017.05
2017-07-27T10:19:45.239Z,1016.94
2017-07-27T10:20:45.246Z,1016.9
2017-07-27T10:21:45.260Z,1016.81
2017-07-27T10:22:45.267Z,1016.84
2017-07-27T10:23:45.276Z,1016.79
2017-07-27T10:24:45.279Z,1016.76
2017-07-27T10:25:45.287Z,1016.72
2017-07-27T10:26:45.297Z,1016.67
2017-07-27T10:27:45.307Z,1016.68
2017-07-27T10:28:45.311Z,1016.7
2017-07-27T10:29:45.319Z,1016.77
2017-07-27T10:30:45.330Z,1016.78
2017-07-27T10:31:45.334Z,1016.84
2017-07-27T10:32:45.346Z,1016.83
2017-07-27T10:33:45.355Z,1016.76
2017-07-27T10:34:45.362Z,1016.74
2017-07-27T10:35:45.366Z,1016.74
2017-07-27T10:36:45.374Z,1016.76
2017-07-27T10:37:45.387Z,1016.76
2017-07-27T10:38:45.397Z,1016.72
2017-07-27T10:39:45.405Z,1016.66
2017-07-27T10:40:45.412Z,1016.61
2017-07-27T10:41:45.421Z,1016.58
2017-07-27T10:42:45.426Z,1016.54
2017-07-27T10:43:45.441Z,1016.53
2017-07-27T10:44:45.442Z,1016.56
2017-07-27T10:45:45.453Z,1016.46
2017-07-27T10:46:45.462Z,1016.45
2017-07-27T10:47:45.470Z,1016.49
2017-07-27T10:48:45.479Z,1016.47
2017-07-27T10:49:45.490Z,1016.38
2017-07-27T10:50:45.502Z,1016.34
2017-07-27T10:51:45.507Z,1016.29
2017-07-27T10:52:45.514Z,1016.23
2017-07-27T10:53:45.525Z,1016.14
2017-07-27T10:54:45.531Z,1016.13
2017-07-27T10:55:45.542Z,1016.1
2017-07-27T10:56:45.547Z,1016.03
2017-07-27T10:57:45.561Z,1015.93
2017-07-27T10:58:45.566Z,1015.92
2017-07-27T10:59:45.577Z,1015.91
2017-07-27T11:00:45.590Z,1015.89
2017-07-27T11:01:45.598Z,1015.85
2017-07-27T11:02:45.606Z,1015.86
2017-07-27T11:03:45.613Z,1015.91
2017-07-27T11:04:45.621Z,1015.91
2017-07-27T11:05:45.634Z,1015.92
2017-07-27T11:06:45.639Z,1015.9
2017-07-27T11:07:45.649Z,1016.04
2017-07-27T11:08:45.658Z,1016.06
2017-07-27T11:09:45.671Z,1016.14
2017-07-27T11:10:45.682Z,1016.3
2017-07-27T11:11:45.690Z,1016.43
2017-07-27T11:12:45.698Z,1016.51
2017-07-27T11:13:45.708Z,1016.62
2017-07-27T11:14:45.717Z,1016.72
2017-07-27T11:15:45.727Z,1016.86
2017-07-27T11:16:45.736Z,1017.07
2017-07-27T11:17:45.746Z,1017.13
2017-07-27T11:18:45.754Z,1017.29
2017-07-27T11:19:45.762Z,1017.38
2017-07-27T11:20:45.774Z,1017.49
2017-07-27T11:21:45.780Z,1017.64
2017-07-27T11:22:45.786Z,1017.84
2017-07-27T11:23:45.797Z,1017.98
2017-07-27T11:24:45.800Z,1018.08
2017-07-27T11:25:45.814Z,1018.09
2017-07-27T11:26:45.818Z,1018.16
2017-07-27T11:27:45.829Z,1018.18
2017-07-27T11:28:45.836Z,1018.21
2017-07-27T11:29:45.845Z,1018.2
2017-07-27T11:30:45.852Z,1018.19
2017-07-27T11:31:45.858Z,1018.21
2017-07-27T11:32:45.866Z,1018.23
2017-07-27T11:33:45.872Z,1018.27
2017-07-27T11:34:45.882Z,1018.29
2017-07-27T11:35:45.885Z,1018.35
2017-07-27T11:36:45.890Z,1018.29
2017-07-27T11:37:45.901Z,1018.35
2017-07-27T11:38:45.907Z,1018.37
2017-07-27T11:39:45.916Z,1018.36
2017-07-27T11:40:45.921Z,1018.42
2017-07-27T11:41:45.923Z,1018.44
2017-07-27T11:42:45.934Z,1018.46
2017-07-27T11:43:45.939Z,1018.59
2017-07-27T11:44:45.945Z,1018.61
2017-07-27T11:45:45.954Z,1018.63
2017-07-27T11:46:45.957Z,1018.63
2017-07-27T11:47:45.966Z,1018.66
2017-07-27T11:48:45.973Z,1018.62
2017-07-27T11:49:45.978Z,1018.64
2017-07-27T11:50:45.982Z,1018.63
2017-07-27T11:51:45.989Z,1018.64
2017-07-27T11:52:45.992Z,1018.63
2017-07-27T11:53:45.999Z,1018.56
2017-07-27T11:54:46.006Z,1018.55
2017-07-27T11:55:46.015Z,1018.55
2017-07-27T11:56:46.018Z,1018.49
2017-07-27T11:57:46.026Z,1018.51
2017-07-27T11:58:46.032Z,1018.51
2017-07-27T11:59:46.038Z,1018.5
2017-07-27T12:00:46.043Z,1018.59
2017-07-27T12:01:46.044Z,1018.66
2017-07-27T12:02:46.053Z,1018.71
2017-07-27T12:03:46.057Z,1018.7
2017-07-27T12:04:46.064Z,1018.83
2017-07-27T12:05:46.072Z,1018.82
2017-07-27T12:06:46.078Z,1018.83
2017-07-27T12:07:46.082Z,1018.9
2017-07-27T12:08:46.093Z,1018.98